Latest Weather Observations for Cleve Airport

IDS60801

Issued at 8:31 am CDT Tuesday 17 October 2017 (issued every 30 minutes, with the page automatically refreshed every 10 minutes)

About weather observations | Map of weather stations | Latest weather observations for SA | Other Formats
Station Details ID: 018116 Name: CLEVE AERODROME Lat: -33.71 Lon: 136.50 Height: 175.0 m
Data from the previous 72 hours. | See also: Recent months at Cleve Airport
Date/Time
CDT
Temp
°C
App
Temp
°C
Dew
Point
°C
Rel
Hum
%
Delta-T
°C
Wind Press
QNH
hPa
Press
MSL
hPa
Rain since
9am
mm
Dir  Spd
km/h
Gust
km/h
Spd
kts
Gust
kts
17/08:30am 24.9 20.9 6.6 31 9.6 NNE 17 24 9 13 1015.6 1015.3 0.0
17/08:00am 22.8 17.6 5.7 33 8.7 N 22 32 12 17 1015.5 1015.2 0.0
17/07:30am 20.7 17.4 6.6 40 7.2 NNE 13 19 7 10 1015.5 1015.2 0.0
17/07:00am 16.9 13.5 6.1 49 5.3 NNE 13 15 7 8 1015.2 1014.9 0.0
17/06:30am 17.9 14.1 5.8 45 6.0 NNE 15 19 8 10 1014.9 1014.6 0.0
17/06:00am 18.6 14.4 5.5 42 6.4 NNE 17 20 9 11 1014.6 1014.3 0.0
17/05:30am 18.8 14.6 5.6 42 6.5 NNE 17 19 9 10 1014.5 1014.2 0.0
17/05:00am 19.7 15.8 5.4 39 7.1 NNE 15 20 8 11 1014.4 1014.1 0.0
17/04:30am 20.3 15.7 5.5 38 7.4 NNE 19 22 10 12 1014.3 1014.0 0.0
17/04:00am 20.1 15.9 5.7 39 7.2 NNE 17 20 9 11 1014.4 1014.1 0.0
17/03:30am 21.0 16.4 5.4 36 7.8 NNE 19 22 10 12 1014.4 1014.1 0.0
17/03:00am 21.3 16.5 5.6 36 7.9 NNE 20 24 11 13 1014.5 1014.2 0.0
17/02:30am 22.2 17.0 5.6 34 8.4 NNE 22 28 12 15 1014.6 1014.3 0.0
17/02:00am 22.9 17.4 5.8 33 8.7 NNE 24 30 13 16 1014.8 1014.5 0.0
17/01:30am 22.9 18.2 6.2 34 8.6 NNE 20 28 11 15 1015.1 1014.8 0.0
17/01:00am 23.4 18.0 6.2 33 8.9 NNE 24 32 13 17 1015.3 1015.0 0.0
17/12:30am 23.4 18.3 6.2 33 8.8 NNE 22 28 12 15 1015.4 1015.1 0.0
17/12:00am 23.4 18.8 6.7 34 8.7 NNE 20 24 11 13 1015.6 1015.3 0.0
 
Date/Time
CDT
Temp
°C
App
Temp
°C
Dew
Point
°C
Rel
Hum
%
Delta-T
°C
Wind Press
QNH
hPa
Press
MSL
hPa
Rain since
9am
mm
Dir  Spd
km/h
Gust
km/h
Spd
kts
Gust
kts
16/11:30pm 23.2 18.8 6.5 34 8.6 NNE 19 24 10 13 1015.7 1015.4 0.0
16/11:00pm 24.7 19.3 6.4 31 9.5 NNE 24 32 13 17 1015.7 1015.4 0.0
16/10:30pm 24.3 19.7 6.6 32 9.2 NNE 20 26 11 14 1015.8 1015.5 0.0
16/10:00pm 24.5 20.1 6.7 32 9.3 NNE 19 24 10 13 1015.7 1015.4 0.0
16/09:30pm 25.4 20.9 7.1 31 9.7 NNE 20 28 11 15 1015.5 1015.2 0.0
16/09:00pm 24.8 20.8 6.5 31 9.5 NNE 17 24 9 13 1015.2 1014.9 0.0
16/08:30pm 26.5 22.1 6.5 28 10.5 NE 19 26 10 14 1014.9 1014.6 0.0
16/08:00pm 26.8 22.3 6.2 27 10.8 NE 19 24 10 13 1014.6 1014.3 0.0
16/07:30pm 28.5 23.8 6.0 24 11.9 ENE 20 26 11 14 1014.1 1013.8 0.0
16/07:00pm 30.4 25.5 4.9 20 13.4 NNE 20 30 11 16 1013.9 1013.6 0.0
16/06:30pm 31.4 26.6 5.8 20 13.7 NNE 20 33 11 18 1013.8 1013.5 0.0
16/06:00pm 31.9 27.1 5.4 19 14.1 NNE 20 32 11 17 1013.8 1013.5 0.0
16/05:30pm 32.3 27.7 5.7 19 14.3 NNE 19 30 10 16 1013.7 1013.4 0.0
16/05:00pm 32.8 27.9 6.9 20 14.2 N 22 35 12 19 1013.8 1013.5 0.0
16/04:30pm 32.9 28.0 7.0 20 14.3 N 22 39 12 21 1014.0 1013.7 0.0
16/04:00pm 32.9 28.2 6.2 19 14.5 N 20 33 11 18 1014.3 1014.0 0.0
16/03:30pm 33.1 27.9 7.1 20 14.3 N 24 43 13 23 1014.6 1014.3 0.0
16/03:00pm 32.6 27.4 7.4 21 13.9 NNE 24 35 13 19 1015.0 1014.7 0.0
16/02:30pm 32.4 27.8 8.0 22 13.6 NNW 22 46 12 25 1015.3 1015.0 0.0
16/02:00pm 32.0 26.9 7.6 22 13.5 N 24 44 13 24 1015.8 1015.5 0.0
16/01:30pm 31.6 26.6 8.0 23 13.1 NNE 24 37 13 20 1016.2 1015.9 0.0
16/01:00pm 31.3 26.7 8.3 24 12.8 N 22 37 12 20 1016.4 1016.1 0.0
16/12:30pm 30.8 25.2 7.3 23 12.8 N 26 39 14 21 1016.9 1016.7 0.0
16/12:00pm 30.4 25.2 8.7 26 12.1 NNE 26 39 14 21 1017.2 1017.0 0.0
16/11:30am 29.5 24.2 8.5 27 11.6 NNE 26 39 14 21 1017.9 1017.7 0.0
16/11:00am 28.8 23.6 9.0 29 11.0 NNE 26 37 14 20 1018.5 1018.2 0.0
16/10:30am 27.5 21.1 8.4 30 10.4 NNE 32 39 17 21 1018.7 1018.4 0.0
16/10:00am 27.2 21.7 9.1 32 10.0 NNE 28 35 15 19 1019.0 1018.7 0.0
16/09:55am 26.8 21.2 8.7 32 9.9 NNE 28 39 15 21 1019.0 1018.7 0.0
16/09:30am 24.5 23.1 12.1 46 7.1 E 11 19 6 10 1019.1 1018.8 0.0
16/09:00am 19.8 18.6 11.6 59 4.6 ESE 9 13 5 7 1019.2 1018.9 0.0
16/08:30am 17.4 16.2 11.7 69 3.1 E 9 11 5 6 1019.2 1018.9 0.0
16/08:00am 14.9 13.4 11.9 82 1.6 E 11 15 6 8 1019.2 1018.9 0.0
16/07:30am 12.1 9.6 9.7 85 1.2 E 13 15 7 8 1019.3 1019.0 0.0
16/07:00am 10.9 8.1 8.7 86 1.1 E 13 15 7 8 1019.2 1018.9 0.0
16/06:30am 10.6 8.9 9.8 95 0.4 NE 9 11 5 6 1019.0 1018.7 0.0
16/06:00am 9.9 8.2 9.9 100 0.0 ENE 9 9 5 5 1018.8 1018.5 0.0
16/05:30am 10.3 8.7 10.3 100 0.0 NE 9 11 5 6 1018.6 1018.3 0.0
16/05:00am 10.5 9.4 10.5 100 0.0 ENE 7 9 4 5 1018.6 1018.3 0.0
16/04:30am 10.3 9.1 10.3 100 0.0 ENE 7 9 4 5 1018.6 1018.3 0.0
16/04:00am 9.6 7.8 9.5 99 0.1 E 9 9 5 5 1018.7 1018.4 0.0
16/03:30am 10.8 10.3 10.8 100 0.0 E 4 6 2 3 1018.8 1018.5 0.0
16/03:00am 10.7 8.9 10.7 100 0.0 NE 11 11 6 6 1018.8 1018.5 0.0
16/02:30am 10.3 8.3 10.3 100 0.0 ENE 11 13 6 7 1019.3 1019.0 0.0
16/02:00am 9.9 7.4 9.8 99 0.1 ENE 13 13 7 7 1019.7 1019.4 0.0
16/01:30am 10.1 8.0 9.8 98 0.2 ENE 11 13 6 7 1020.2 1019.9 0.0
16/01:00am 10.9 9.4 10.4 97 0.3 ENE 9 11 5 6 1020.4 1020.1 0.0
16/12:30am 11.4 10.0 10.8 96 0.3 E 9 11 5 6 1020.5 1020.2 0.0
16/12:00am 11.4 9.1 10.6 95 0.4 ENE 13 15 7 8 1020.5 1020.2 0.0
 
Date/Time
CDT
Temp
°C
App
Temp
°C
Dew
Point
°C
Rel
Hum
%
Delta-T
°C
Wind Press
QNH
hPa
Press
MSL
hPa
Rain since
9am
mm
Dir  Spd
km/h
Gust
km/h
Spd
kts
Gust
kts
15/11:30pm 11.2 9.2 10.1 93 0.6 ENE 11 11 6 6 1020.9 1020.6 0.0
15/11:00pm 11.2 9.5 10.0 92 0.6 ENE 9 9 5 5 1020.9 1020.6 0.0
15/10:30pm 11.3 9.5 9.6 89 0.9 ENE 9 9 5 5 1021.0 1020.7 0.0
15/10:00pm 12.0 10.8 9.7 86 1.2 ENE 6 7 3 4 1020.8 1020.5 0.0
15/09:30pm 12.3 11.1 9.5 83 1.4 ESE 6 7 3 4 1020.7 1020.4 0.0
15/09:00pm 13.8 12.3 10.6 81 1.7 ESE 9 9 5 5 1020.2 1019.9 0.0
15/08:30pm 13.7 11.7 10.3 80 1.8 E 11 13 6 7 1020.0 1019.7 0.0
15/08:00pm 15.4 13.5 10.4 72 2.7 ESE 11 15 6 8 1020.0 1019.7 0.0
15/07:30pm 17.1 13.7 10.7 66 3.4 ESE 19 24 10 13 1019.7 1019.4 0.0
15/07:00pm 18.5 15.0 10.8 61 4.2 ESE 20 30 11 16 1019.6 1019.3 0.0
15/06:30pm 19.4 14.7 9.3 52 5.4 SE 24 32 13 17 1019.6 1019.3 0.0
15/06:00pm 20.8 15.7 9.1 47 6.2 ESE 26 33 14 18 1019.4 1019.1 0.0
15/05:30pm 21.7 16.3 7.9 41 7.2 ESE 26 35 14 19 1019.3 1019.0 0.0
15/05:00pm 21.8 16.5 8.3 42 7.2 ESE 26 37 14 20 1019.4 1019.1 0.0
15/04:30pm 22.6 17.1 7.6 38 7.9 ESE 26 35 14 19 1019.3 1019.0 0.0
15/04:00pm 23.3 17.3 7.0 35 8.5 ESE 28 39 15 21 1019.3 1019.0 0.0
15/03:30pm 23.5 17.3 6.3 33 8.9 ESE 28 39 15 21 1019.5 1019.2 0.0
15/03:00pm 23.1 17.0 6.8 35 8.4 ESE 28 37 15 20 1019.7 1019.4 0.0
15/02:30pm 23.5 17.5 7.2 35 8.5 ESE 28 39 15 21 1020.0 1019.7 0.0
15/02:00pm 23.4 17.6 7.9 37 8.2 SE 28 44 15 24 1020.2 1019.9 0.0
15/01:30pm 23.3 19.2 10.0 43 7.3 ESE 22 32 12 17 1020.2 1019.9 0.0
15/01:00pm 22.8 18.0 8.9 41 7.5 ESE 24 32 13 17 1020.7 1020.4 0.0
15/12:30pm 22.5 18.6 10.9 48 6.4 ESE 22 32 12 17 1021.2 1020.9 0.0
15/12:00pm 21.9 18.5 11.3 51 5.9 ESE 20 30 11 16 1021.3 1021.0 0.0
15/11:30am 22.2 19.6 11.9 52 5.8 ESE 17 24 9 13 1021.6 1021.4 0.0
15/11:00am 19.9 17.0 10.9 56 4.9 ESE 17 24 9 13 1022.0 1021.8 0.0
15/10:30am 19.4 17.2 12.2 63 4.0 E 15 22 8 12 1022.3 1022.1 0.0
15/10:00am 17.9 15.5 12.6 71 3.0 E 17 20 9 11 1022.5 1022.3 0.0
15/09:30am 16.4 13.9 13.5 83 1.6 ESE 19 26 10 14 1022.5 1022.3 0.0
15/09:00am 14.7 12.8 14.1 96 0.3 E 17 22 9 12 1022.6 1022.4 0.2
15/08:30am 13.9 13.4 13.9 100 0.0 E 9 13 5 7 1022.6 1022.4 0.2
15/08:00am 12.0 12.2 12.0 100 0.0 ENE 2 6 1 3 1022.5 1022.3 0.2
15/07:30am 10.5 9.6 10.5 100 0.0 ENE 6 7 3 4 1022.2 1022.0 0.2
15/07:00am 9.5 8.1 9.5 100 0.0 E 7 7 4 4 1021.9 1021.7 0.2
15/06:30am 9.7 8.3 9.7 100 0.0 NE 7 7 4 4 1021.6 1021.4 0.2
15/06:00am 10.0 7.6 10.0 100 0.0 E 13 15 7 8 1021.2 1020.9 0.2
15/05:30am 10.9 9.1 10.9 100 0.0 ENE 11 13 6 7 1021.1 1020.8 0.2
15/05:00am 11.4 9.0 11.4 100 0.0 ENE 15 19 8 10 1021.1 1020.8 0.2
15/04:30am 11.4 9.4 11.4 100 0.0 ENE 13 17 7 9 1021.1 1020.8 0.2
15/04:00am 11.5 9.9 11.5 100 0.0 NE 11 15 6 8 1021.2 1020.9 0.2
15/03:30am 10.5 9.4 10.5 100 0.0 NE 7 11 4 6 1021.3 1021.0 0.2
15/03:00am 11.0 8.5 11.0 100 0.0 ENE 15 19 8 10 1021.5 1021.3 0.2
15/02:30am 11.5 9.5 11.5 100 0.0 ENE 13 17 7 9 1021.9 1021.7 0.0
15/02:00am 10.9 9.1 10.9 100 0.0 E 11 13 6 7 1022.1 1021.9 0.0
15/01:30am 11.0 8.9 11.0 100 0.0 E 13 15 7 8 1022.5 1022.3 0.0
15/01:00am 11.7 9.4 11.7 100 0.0 E 15 17 8 9 1022.8 1022.6 0.0
15/12:30am 11.2 8.7 11.0 99 0.1 E 15 17 8 9 1023.0 1022.8 0.0
15/12:00am 12.1 9.5 11.9 99 0.1 ESE 17 20 9 11 1022.9 1022.7 0.0
 
Date/Time
CDT
Temp
°C
App
Temp
°C
Dew
Point
°C
Rel
Hum
%
Delta-T
°C
Wind Press
QNH
hPa
Press
MSL
hPa
Rain since
9am
mm
Dir  Spd
km/h
Gust
km/h
Spd
kts
Gust
kts
14/11:30pm 11.2 9.4 10.9 98 0.2 ENE 11 19 6 10 1023.2 1023.0 0.0
14/11:00pm 11.2 8.3 10.9 98 0.2 E 17 19 9 10 1023.2 1023.0 0.0
14/10:30pm 10.9 8.6 10.4 97 0.3 ENE 13 15 7 8 1023.1 1022.9 0.0
14/10:00pm 11.0 9.1 10.5 97 0.3 NE 11 13 6 7 1023.0 1022.8 0.0
14/09:30pm 11.1 9.1 10.3 95 0.4 NE 11 13 6 7 1022.9 1022.7 0.0
14/09:00pm 11.1 9.4 9.9 92 0.6 NE 9 11 5 6 1022.8 1022.6 0.0
14/08:30pm 11.8 10.1 9.9 88 1.0 E 9 11 5 6 1022.9 1022.7 0.0
14/08:00pm 13.3 11.5 10.8 85 1.3 ESE 11 15 6 8 1022.8 1022.6 0.0
14/07:30pm 14.3 11.6 10.5 78 2.0 SE 15 20 8 11 1022.8 1022.6 0.0
14/07:00pm 15.3 11.9 10.5 73 2.6 SE 19 24 10 13 1022.5 1022.3 0.0
14/06:30pm 16.2 12.1 10.1 67 3.2 SE 22 28 12 15 1022.2 1022.0 0.0
14/06:00pm 16.8 12.3 10.0 64 3.6 SE 24 30 13 16 1022.0 1021.8 0.0
14/05:30pm 17.8 13.6 9.9 60 4.2 ESE 22 30 12 16 1021.9 1021.7 0.0
14/05:00pm 18.3 13.6 9.4 56 4.7 SE 24 32 13 17 1021.9 1021.7 0.0
14/04:30pm 19.2 15.1 8.5 50 5.6 SE 20 39 11 21 1021.8 1021.6 0.0
14/04:00pm 19.2 14.5 7.6 47 6.0 ESE 22 32 12 17 1022.0 1021.8 0.0
14/03:30pm 18.9 14.7 8.3 50 5.5 SE 20 26 11 14 1022.3 1022.1 0.0
14/03:00pm 19.2 15.3 8.8 51 5.5 ESE 19 30 10 16 1022.7 1022.5 0.0
14/02:30pm 19.1 15.1 9.0 52 5.3 SSE 20 32 11 17 1023.0 1022.8 0.0
14/02:00pm 18.1 14.1 8.1 52 5.2 ESE 19 26 10 14 1023.4 1023.2 0.0
14/01:30pm 19.3 16.0 9.5 53 5.2 SE 17 26 9 14 1023.7 1023.5 0.0
14/01:00pm 18.5 14.6 9.6 56 4.7 ESE 20 32 11 17 1023.9 1023.7 0.0
14/12:30pm 17.5 13.7 9.2 58 4.3 SE 19 28 10 15 1024.4 1024.1 0.0
14/12:00pm 17.6 14.2 9.0 57 4.5 ESE 17 26 9 14 1024.7 1024.4 0.0
14/11:30am 17.1 13.4 9.5 61 4.0 E 19 26 10 14 1024.8 1024.5 0.0
14/11:00am 16.2 12.3 9.4 64 3.6 E 20 26 11 14 1025.0 1024.7 0.0
14/10:30am 15.8 12.3 10.1 69 3.0 ESE 19 26 10 14 1025.1 1024.8 0.0
14/10:00am 14.4 11.0 10.4 77 2.1 ESE 19 26 10 14 1025.2 1024.9 0.0
14/09:30am 13.9 10.1 9.9 77 2.1 ESE 20 28 11 15 1025.2 1024.9 0.0
14/09:00am 13.6 9.9 10.2 80 1.8 ESE 20 28 11 15 1024.9 1024.6 0.0

Other Formats:

Comma delimited format used in spreadsheet applications
http://www.bom.gov.au/fwo/IDS60801/IDS60801.94662.axf

JavaScript Object Notation format (JSON) in row-major order
http://www.bom.gov.au/fwo/IDS60801/IDS60801.94662.json